createdAt,value
2022-12-03T00:01:17.435Z,4.70
2022-12-03T00:03:44.863Z,5.38
2022-12-03T00:06:12.201Z,5.82
2022-12-03T00:08:40.062Z,6.40
2022-12-03T00:11:07.069Z,5.03
2022-12-03T00:13:34.686Z,4.82
2022-12-03T00:16:01.706Z,4.72
2022-12-03T00:18:29.048Z,4.57
2022-12-03T00:20:56.230Z,4.82
2022-12-03T00:23:23.491Z,5.47
2022-12-03T00:25:50.767Z,4.70
2022-12-03T00:28:18.053Z,3.50
2022-12-03T00:30:45.620Z,5.47
2022-12-03T00:33:12.974Z,4.97
2022-12-03T00:35:40.011Z,6.20
2022-12-03T00:38:07.335Z,6.25
2022-12-03T00:40:35.007Z,4.75
2022-12-03T00:43:02.303Z,4.28
2022-12-03T00:45:29.393Z,5.53
2022-12-03T00:47:57.198Z,5.72
2022-12-03T00:50:49.615Z,4.65
2022-12-03T00:56:01.066Z,3.58
2022-12-03T00:58:28.557Z,5.07
2022-12-03T01:00:55.622Z,3.90
2022-12-03T01:03:23.268Z,2.97
2022-12-03T01:05:50.230Z,4.65
2022-12-03T01:08:17.684Z,3.70
2022-12-03T01:10:44.625Z,6.70
2022-12-03T01:13:11.947Z,3.85
2022-12-03T01:15:39.014Z,5.38
2022-12-03T01:18:06.495Z,4.40
2022-12-03T01:20:33.738Z,3.65
2022-12-03T01:23:01.590Z,6.63
2022-12-03T01:25:28.632Z,3.20
2022-12-03T01:27:56.172Z,5.25
2022-12-03T01:30:23.102Z,4.60
2022-12-03T01:32:50.585Z,5.20
2022-12-03T01:35:17.644Z,7.30
2022-12-03T01:37:45.020Z,5.03
2022-12-03T01:40:19.949Z,5.95
2022-12-03T01:42:47.369Z,5.00
2022-12-03T01:45:23.997Z,6.95
2022-12-03T01:47:52.516Z,5.10
2022-12-03T01:50:26.881Z,6.65
2022-12-03T01:52:58.427Z,4.53
2022-12-03T01:55:26.787Z,7.18
2022-12-03T01:57:56.966Z,5.38
2022-12-03T02:00:30.080Z,4.53
2022-12-03T02:03:03.745Z,6.88
2022-12-03T02:05:33.258Z,3.75
2022-12-03T02:08:02.197Z,5.78
2022-12-03T02:10:36.223Z,6.68
2022-12-03T02:13:07.684Z,6.53
2022-12-03T02:15:36.477Z,5.00
2022-12-03T02:18:04.301Z,4.47
2022-12-03T02:20:36.803Z,4.45
2022-12-03T02:23:25.744Z,2.50
2022-12-03T02:25:53.012Z,3.60
2022-12-03T02:28:20.320Z,3.60
2022-12-03T02:30:47.369Z,5.70
2022-12-03T02:33:14.812Z,4.25
2022-12-03T02:35:41.859Z,4.60
2022-12-03T02:38:31.425Z,3.17
2022-12-03T02:41:05.026Z,3.55
2022-12-03T02:43:32.759Z,6.07
2022-12-03T02:46:02.660Z,7.10
2022-12-03T02:48:37.229Z,6.78
2022-12-03T02:51:07.225Z,5.90
2022-12-03T02:53:42.654Z,6.10
2022-12-03T02:56:13.308Z,3.85
2022-12-03T03:01:09.777Z,5.43
2022-12-03T03:03:38.041Z,5.68
2022-12-03T03:06:07.105Z,4.85
2022-12-03T03:08:35.310Z,5.13
2022-12-03T03:11:03.655Z,4.57
2022-12-03T03:13:33.393Z,4.65
2022-12-03T03:16:03.151Z,5.88
2022-12-03T03:18:30.908Z,7.05
2022-12-03T03:20:58.040Z,5.28
2022-12-03T03:23:25.314Z,3.90
2022-12-03T03:26:06.187Z,6.65
2022-12-03T03:28:38.738Z,4.20
2022-12-03T03:31:08.342Z,4.57
2022-12-03T03:33:38.770Z,4.60
2022-12-03T03:36:07.320Z,6.05
2022-12-03T03:38:36.270Z,4.90
2022-12-03T03:41:06.005Z,5.07
2022-12-03T03:43:35.571Z,5.63
2022-12-03T03:46:05.705Z,3.95
2022-12-03T03:48:37.394Z,5.30
2022-12-03T03:51:09.423Z,3.10
2022-12-03T03:53:40.126Z,6.88
2022-12-03T03:56:09.798Z,6.60
2022-12-03T03:58:37.852Z,5.55
2022-12-03T04:01:05.367Z,8.00
2022-12-03T04:03:35.418Z,8.38
2022-12-03T04:06:03.525Z,8.73
2022-12-03T04:08:31.305Z,9.35
2022-12-03T04:11:16.925Z,7.75
2022-12-03T04:13:44.318Z,7.25
2022-12-03T04:16:11.273Z,7.10
2022-12-03T04:18:44.429Z,9.45
2022-12-03T04:21:35.717Z,6.13
2022-12-03T04:24:03.789Z,4.55
2022-12-03T04:26:49.880Z,4.22
2022-12-03T04:29:17.234Z,4.78
2022-12-03T04:32:02.602Z,3.90
2022-12-03T04:34:48.285Z,4.53
2022-12-03T04:37:15.520Z,6.22
2022-12-03T04:39:43.419Z,4.47
2022-12-03T04:42:10.434Z,7.47
2022-12-03T04:44:38.772Z,8.13
2022-12-03T04:47:17.694Z,4.93
2022-12-03T04:49:47.311Z,5.97
2022-12-03T04:52:16.483Z,6.78
2022-12-03T04:54:44.778Z,4.15
2022-12-03T04:57:12.802Z,5.10
2022-12-03T04:59:40.458Z,6.03
2022-12-03T05:02:08.088Z,7.30
2022-12-03T05:04:35.929Z,9.48
2022-12-03T05:07:03.237Z,9.52
2022-12-03T05:09:30.676Z,8.18
2022-12-03T05:11:57.631Z,8.93
2022-12-03T05:14:25.022Z,5.10
2022-12-03T05:16:52.115Z,5.70
2022-12-03T05:19:19.510Z,6.97
2022-12-03T05:21:55.640Z,6.30
2022-12-03T05:24:33.975Z,5.45
2022-12-03T05:27:01.469Z,6.57
2022-12-03T05:29:28.732Z,7.97
2022-12-03T05:31:57.651Z,5.95
2022-12-03T05:34:25.513Z,6.18
2022-12-03T05:36:52.593Z,6.53
2022-12-03T05:39:20.028Z,7.03
2022-12-03T05:42:05.422Z,4.60
2022-12-03T05:44:32.702Z,5.05
2022-12-03T05:46:59.648Z,5.95
2022-12-03T05:49:26.968Z,4.65
2022-12-03T05:51:58.393Z,6.07
2022-12-03T05:54:26.479Z,6.68
2022-12-03T05:56:53.509Z,5.65
2022-12-03T05:59:20.970Z,5.10
2022-12-03T06:01:47.981Z,3.85
2022-12-03T06:04:15.290Z,4.20
2022-12-03T06:06:42.784Z,6.00
2022-12-03T06:09:10.144Z,4.55
2022-12-03T06:11:37.456Z,6.20
2022-12-03T06:14:04.800Z,7.50
2022-12-03T06:16:32.375Z,5.97
2022-12-03T06:21:42.768Z,3.30
2022-12-03T06:27:04.150Z,4.65
2022-12-03T06:32:28.761Z,4.40
2022-12-03T06:37:40.156Z,6.68
2022-12-03T06:40:09.454Z,7.22
2022-12-03T06:42:36.562Z,10.70
2022-12-03T06:45:04.344Z,7.70
2022-12-03T06:47:31.371Z,8.18
2022-12-03T06:49:59.080Z,8.70
2022-12-03T06:55:11.228Z,8.40
2022-12-03T06:57:38.254Z,9.95
2022-12-03T07:00:06.672Z,9.48
2022-12-03T07:02:33.761Z,8.80
2022-12-03T07:05:01.460Z,6.70
2022-12-03T07:07:28.584Z,9.00
2022-12-03T07:09:56.177Z,7.90
2022-12-03T07:12:24.254Z,10.27
2022-12-03T07:14:52.147Z,10.70
2022-12-03T07:17:19.564Z,8.77
2022-12-03T07:19:47.262Z,11.10
2022-12-03T07:22:18.568Z,10.32
2022-12-03T07:24:51.083Z,10.18
2022-12-03T07:27:19.325Z,10.35
2022-12-03T07:29:46.766Z,6.63
2022-12-03T07:32:14.887Z,7.45
2022-12-03T07:34:44.186Z,7.50
2022-12-03T07:37:11.266Z,9.30
2022-12-03T07:39:41.018Z,9.60
2022-12-03T07:42:10.082Z,9.55
2022-12-03T07:47:20.360Z,8.90
2022-12-03T07:49:47.763Z,9.73
2022-12-03T07:52:15.026Z,11.35
2022-12-03T07:54:42.479Z,11.40
2022-12-03T07:57:09.528Z,10.20
2022-12-03T07:59:36.839Z,9.13
2022-12-03T08:02:04.020Z,10.88
2022-12-03T08:04:35.704Z,9.68
2022-12-03T08:07:03.408Z,13.23
2022-12-03T08:09:32.678Z,7.97
2022-12-03T08:12:05.597Z,9.45
2022-12-03T08:14:33.899Z,13.52
2022-12-03T08:17:02.066Z,9.85
2022-12-03T08:19:31.896Z,10.20
2022-12-03T08:22:01.621Z,8.85
2022-12-03T08:24:32.331Z,12.57
2022-12-03T08:26:59.805Z,13.05
2022-12-03T08:29:34.500Z,13.40
2022-12-03T08:32:01.579Z,13.55
2022-12-03T08:34:35.844Z,14.43
2022-12-03T08:37:18.180Z,14.10
2022-12-03T08:39:48.582Z,12.57
2022-12-03T08:42:41.758Z,13.18
2022-12-03T08:45:40.574Z,8.25
2022-12-03T08:48:40.698Z,9.82
2022-12-03T08:51:25.601Z,6.57
2022-12-03T08:54:01.856Z,11.30
2022-12-03T08:56:33.601Z,12.00
2022-12-03T08:59:25.007Z,9.95
2022-12-03T09:01:55.034Z,7.68
2022-12-03T09:04:30.730Z,9.93
2022-12-03T09:07:01.155Z,10.00
2022-12-03T09:09:29.315Z,10.73
2022-12-03T09:11:59.752Z,10.60
2022-12-03T09:14:29.656Z,11.05
2022-12-03T09:16:57.585Z,10.85
2022-12-03T09:19:27.479Z,8.10
2022-12-03T09:21:55.768Z,11.02
2022-12-03T09:24:23.405Z,7.82
2022-12-03T09:26:56.453Z,8.48
2022-12-03T09:29:24.342Z,11.50
2022-12-03T09:31:51.765Z,8.70
2022-12-03T09:34:18.886Z,9.48
2022-12-03T09:36:46.212Z,9.95
2022-12-03T09:39:13.349Z,10.43
2022-12-03T09:41:40.849Z,9.70
2022-12-03T09:44:13.726Z,9.30
2022-12-03T09:46:46.691Z,9.95
2022-12-03T09:49:16.648Z,9.80
2022-12-03T09:51:48.789Z,7.25
2022-12-03T09:54:24.107Z,10.38
2022-12-03T09:56:52.808Z,7.95
2022-12-03T09:59:21.953Z,8.98
2022-12-03T10:04:17.904Z,5.45
2022-12-03T10:06:46.395Z,5.65
2022-12-03T10:09:17.577Z,7.30
2022-12-03T10:11:45.432Z,6.15
2022-12-03T10:14:17.943Z,8.27
2022-12-03T10:17:02.527Z,6.13
2022-12-03T10:19:35.849Z,4.55
2022-12-03T10:22:03.872Z,4.18
2022-12-03T10:24:32.652Z,7.93
2022-12-03T10:30:02.437Z,5.00
2022-12-03T10:32:45.505Z,5.40
2022-12-03T10:35:14.187Z,9.73
2022-12-03T10:38:00.682Z,4.63
2022-12-03T10:40:33.925Z,4.80
2022-12-03T10:43:19.937Z,5.30
2022-12-03T10:46:08.038Z,6.00
2022-12-03T10:48:36.890Z,4.85
2022-12-03T10:51:32.339Z,7.05
2022-12-03T10:54:14.514Z,4.50
2022-12-03T10:56:41.502Z,4.22
2022-12-03T10:59:31.338Z,5.25
2022-12-03T11:01:58.611Z,4.35
2022-12-03T11:04:35.211Z,4.43
2022-12-03T11:07:03.372Z,4.10
2022-12-03T11:09:32.878Z,6.13
2022-12-03T11:15:09.814Z,4.78
2022-12-03T11:18:10.557Z,4.20
2022-12-03T11:20:58.444Z,5.32
2022-12-03T11:23:44.807Z,4.63
2022-12-03T11:26:19.569Z,4.22
2022-12-03T11:28:49.287Z,5.47
2022-12-03T11:31:37.771Z,6.13
2022-12-03T11:34:20.514Z,7.60
2022-12-03T11:37:09.620Z,6.80
2022-12-03T11:39:52.730Z,6.45
2022-12-03T11:42:26.482Z,4.40
2022-12-03T11:45:28.482Z,5.75
2022-12-03T11:47:58.974Z,3.60
2022-12-03T11:50:40.557Z,6.45
2022-12-03T11:53:07.982Z,8.85
2022-12-03T11:55:41.502Z,6.43
2022-12-03T11:58:19.439Z,5.35
2022-12-03T12:00:58.332Z,5.78
2022-12-03T12:03:33.952Z,6.93
2022-12-03T12:06:05.907Z,7.55
2022-12-03T12:08:39.218Z,7.35
2022-12-03T12:11:32.662Z,5.20
2022-12-03T12:14:00.575Z,4.55
2022-12-03T12:16:36.354Z,6.53
2022-12-03T12:19:29.942Z,5.30
2022-12-03T12:22:12.841Z,5.78
2022-12-03T12:24:40.558Z,5.78
2022-12-03T12:27:19.131Z,6.25
2022-12-03T12:29:54.969Z,6.32
2022-12-03T12:32:46.038Z,3.63
2022-12-03T12:35:26.458Z,4.65
2022-12-03T12:37:59.814Z,3.42
2022-12-03T12:40:31.128Z,4.00
2022-12-03T12:43:05.414Z,4.95
2022-12-03T12:45:41.299Z,6.72
2022-12-03T12:48:28.957Z,4.53
2022-12-03T12:51:19.594Z,4.85
2022-12-03T12:53:49.891Z,4.72
2022-12-03T12:56:25.577Z,6.45
2022-12-03T12:58:53.830Z,5.95
2022-12-03T13:01:29.163Z,5.05
2022-12-03T13:03:57.102Z,6.43
2022-12-03T13:06:27.996Z,8.02
2022-12-03T13:08:55.532Z,3.97
2022-12-03T13:11:45.814Z,4.15
2022-12-03T13:14:16.215Z,5.95
2022-12-03T13:16:44.430Z,5.68
2022-12-03T13:19:29.313Z,5.28
2022-12-03T13:22:00.912Z,4.40
2022-12-03T13:28:41.894Z,4.45
2022-12-03T13:31:23.845Z,4.07
2022-12-03T13:33:54.855Z,5.82
2022-12-03T13:36:27.600Z,4.57
2022-12-03T13:38:54.832Z,3.88
2022-12-03T13:44:49.884Z,5.93
2022-12-03T13:47:22.783Z,4.38
2022-12-03T13:52:42.645Z,5.63
2022-12-03T13:55:11.945Z,4.95
2022-12-03T13:57:45.439Z,3.47
2022-12-03T14:03:28.773Z,5.90
2022-12-03T14:05:57.389Z,8.25
2022-12-03T14:11:40.943Z,5.50
2022-12-03T14:14:22.933Z,5.65
2022-12-03T14:22:19.732Z,5.07
2022-12-03T14:24:52.466Z,7.18
2022-12-03T14:27:21.066Z,8.15
2022-12-03T14:29:48.134Z,6.30
2022-12-03T14:32:16.918Z,7.85
2022-12-03T14:34:47.603Z,4.32
2022-12-03T14:37:18.655Z,6.38
2022-12-03T14:39:48.685Z,5.05
2022-12-03T14:42:39.130Z,5.07
2022-12-03T14:45:10.994Z,6.93
2022-12-03T14:47:38.850Z,6.13
2022-12-03T14:50:30.443Z,3.80
2022-12-03T14:56:03.340Z,5.57
2022-12-03T15:01:45.091Z,9.27
2022-12-03T15:04:13.177Z,6.32
2022-12-03T15:06:40.348Z,7.85
2022-12-03T15:12:11.400Z,8.35
2022-12-03T15:14:43.896Z,5.60
2022-12-03T15:17:12.494Z,4.53
2022-12-03T15:19:40.210Z,4.97
2022-12-03T15:22:07.258Z,5.25
2022-12-03T15:24:34.735Z,6.28
2022-12-03T15:27:01.692Z,5.32
2022-12-03T15:29:32.555Z,6.32
2022-12-03T15:32:01.952Z,3.60
2022-12-03T15:34:30.750Z,4.95
2022-12-03T15:36:57.782Z,5.03
2022-12-03T15:39:48.786Z,3.95
2022-12-03T15:42:15.986Z,5.03
2022-12-03T15:44:48.402Z,5.65
2022-12-03T15:47:17.707Z,5.28
2022-12-03T15:49:53.527Z,5.72
2022-12-03T15:52:22.310Z,5.47
2022-12-03T15:54:49.927Z,4.75
2022-12-03T15:57:17.221Z,5.18
2022-12-03T15:59:48.366Z,4.80
2022-12-03T16:02:20.989Z,4.25
2022-12-03T16:04:48.596Z,6.05
2022-12-03T16:07:19.832Z,5.28
2022-12-03T16:12:17.378Z,10.10
2022-12-03T16:14:47.407Z,14.27
2022-12-03T16:17:14.442Z,5.97
2022-12-03T16:19:42.000Z,7.97
2022-12-03T16:22:09.757Z,10.15
2022-12-03T16:24:39.363Z,12.75
2022-12-03T16:32:15.844Z,9.40
2022-12-03T16:34:43.164Z,11.07
2022-12-03T16:37:11.553Z,9.43
2022-12-03T16:39:40.138Z,9.48
2022-12-03T16:42:16.959Z,8.57
2022-12-03T16:45:12.037Z,6.47
2022-12-03T16:47:40.325Z,8.15
2022-12-03T16:50:19.848Z,7.22
2022-12-03T16:52:49.482Z,8.70
2022-12-03T16:55:16.821Z,8.48
2022-12-03T16:57:44.042Z,7.63
2022-12-03T17:00:11.790Z,10.38
2022-12-03T17:02:39.034Z,8.32
2022-12-03T17:05:06.790Z,8.43
2022-12-03T17:07:34.120Z,8.85
2022-12-03T17:10:05.188Z,10.25
2022-12-03T17:12:54.163Z,9.45
2022-12-03T17:15:19.564Z,8.93
2022-12-03T17:17:47.055Z,5.82
2022-12-03T17:20:18.563Z,5.93
2022-12-03T17:23:06.550Z,6.13
2022-12-03T17:25:34.706Z,7.20
2022-12-03T17:28:02.069Z,9.68
2022-12-03T17:30:31.571Z,8.30
2022-12-03T17:32:59.414Z,7.82
2022-12-03T17:35:28.655Z,7.70
2022-12-03T17:37:55.906Z,9.43
2022-12-03T17:40:24.063Z,9.60
2022-12-03T17:42:52.248Z,10.30
2022-12-03T17:45:19.974Z,13.35
2022-12-03T17:47:47.219Z,10.75
2022-12-03T17:50:15.032Z,6.90
2022-12-03T17:52:44.090Z,11.45
2022-12-03T17:55:17.732Z,6.43
2022-12-03T17:57:49.054Z,7.53
2022-12-03T18:00:16.622Z,8.10
2022-12-03T18:02:43.625Z,8.10
2022-12-03T18:05:13.618Z,8.38
2022-12-03T18:07:41.024Z,6.10
2022-12-03T18:10:17.543Z,8.48
2022-12-03T18:12:48.450Z,8.82
2022-12-03T18:15:15.897Z,8.52
2022-12-03T18:17:47.245Z,6.28
2022-12-03T18:20:15.325Z,9.32
2022-12-03T18:22:45.636Z,5.70
2022-12-03T18:25:15.770Z,7.60
2022-12-03T18:27:42.880Z,5.50
2022-12-03T18:30:11.054Z,5.43
2022-12-03T18:32:38.065Z,4.35
2022-12-03T18:35:06.894Z,6.93
2022-12-03T18:37:34.115Z,8.43
2022-12-03T18:40:12.391Z,4.30
2022-12-03T18:42:39.711Z,7.05
2022-12-03T18:45:10.626Z,7.45
2022-12-03T18:47:37.703Z,9.20
2022-12-03T18:50:06.879Z,7.18
2022-12-03T18:52:33.883Z,9.43
2022-12-03T18:55:01.647Z,9.65
2022-12-03T18:57:28.725Z,6.70
2022-12-03T18:59:58.586Z,6.50
2022-12-03T19:05:15.675Z,4.85
2022-12-03T19:07:43.935Z,7.82
2022-12-03T19:10:12.406Z,6.40
2022-12-03T19:12:39.930Z,6.22
2022-12-03T19:15:09.053Z,6.95
2022-12-03T19:17:36.297Z,6.72
2022-12-03T19:20:11.405Z,6.78
2022-12-03T19:22:39.392Z,6.78
2022-12-03T19:25:10.110Z,7.65
2022-12-03T19:27:39.013Z,4.15
2022-12-03T19:30:07.541Z,6.72
2022-12-03T19:32:36.648Z,5.80
2022-12-03T19:35:05.544Z,7.20
2022-12-03T19:37:36.332Z,4.35
2022-12-03T19:40:05.560Z,5.70
2022-12-03T19:42:35.136Z,4.28
2022-12-03T19:45:02.547Z,6.30
2022-12-03T19:47:33.485Z,8.68
2022-12-03T19:50:01.761Z,7.75
2022-12-03T19:52:28.942Z,5.50
2022-12-03T19:55:00.535Z,12.05
2022-12-03T19:57:27.531Z,4.22
2022-12-03T19:59:57.903Z,6.93
2022-12-03T20:02:26.780Z,5.18
2022-12-03T20:05:02.243Z,7.00
2022-12-03T20:07:34.224Z,5.32
2022-12-03T20:10:01.627Z,7.07
2022-12-03T20:12:29.498Z,7.72
2022-12-03T20:14:57.616Z,9.07
2022-12-03T20:17:26.837Z,8.25
2022-12-03T20:19:57.254Z,13.45
2022-12-03T20:22:25.035Z,12.35
2022-12-03T20:24:57.809Z,8.07
2022-12-03T20:27:29.017Z,6.70
2022-12-03T20:30:17.990Z,7.10
2022-12-03T20:32:49.407Z,9.40
2022-12-03T20:35:17.729Z,5.07
2022-12-03T20:37:47.876Z,5.88
2022-12-03T20:40:18.527Z,9.73
2022-12-03T20:42:53.509Z,4.43
2022-12-03T20:45:24.836Z,6.60
2022-12-03T20:47:56.879Z,7.53
2022-12-03T20:50:30.090Z,4.75
2022-12-03T20:53:16.627Z,7.78
2022-12-03T20:55:45.046Z,3.92
2022-12-03T20:58:12.810Z,7.82
2022-12-03T21:00:40.978Z,4.50
2022-12-03T21:03:08.385Z,9.05
2022-12-03T21:05:35.371Z,9.25
2022-12-03T21:08:02.767Z,7.28
2022-12-03T21:10:59.017Z,5.32
2022-12-03T21:13:30.970Z,4.88
2022-12-03T21:16:09.017Z,5.25
2022-12-03T21:18:39.337Z,7.32
2022-12-03T21:21:07.316Z,5.20
2022-12-03T21:23:35.566Z,9.45
2022-12-03T21:26:15.022Z,6.28
2022-12-03T21:28:45.541Z,5.60
2022-12-03T21:31:23.493Z,9.75
2022-12-03T21:33:51.068Z,8.20
2022-12-03T21:36:18.373Z,10.02
2022-12-03T21:38:46.202Z,8.57
2022-12-03T21:41:14.567Z,8.68
2022-12-03T21:43:44.356Z,10.32
2022-12-03T21:47:11.640Z,11.95
2022-12-03T21:49:04.691Z,8.73
2022-12-03T21:51:31.759Z,10.98
2022-12-03T21:54:02.034Z,6.70
2022-12-03T21:56:32.111Z,6.88
2022-12-03T21:58:59.526Z,7.20
2022-12-03T22:01:26.681Z,6.88
2022-12-03T22:03:54.109Z,5.22
2022-12-03T22:06:21.470Z,5.43
2022-12-03T22:08:49.437Z,8.65
2022-12-03T22:11:22.269Z,7.28
2022-12-03T22:13:51.792Z,6.90
2022-12-03T22:16:21.327Z,5.82
2022-12-03T22:18:50.824Z,3.55
2022-12-03T22:21:19.853Z,6.97
2022-12-03T22:23:47.661Z,7.30
2022-12-03T22:26:17.092Z,6.28
2022-12-03T22:28:47.248Z,7.43
2022-12-03T22:33:42.793Z,6.05
2022-12-03T22:36:19.925Z,7.85
2022-12-03T22:38:57.708Z,5.88
2022-12-03T22:41:24.795Z,4.28
2022-12-03T22:44:02.095Z,7.22
2022-12-03T22:46:29.198Z,6.88
2022-12-03T22:49:00.515Z,6.60
2022-12-03T22:51:31.644Z,5.68
2022-12-03T22:54:01.432Z,7.53
2022-12-03T22:56:29.386Z,7.55
2022-12-03T22:58:56.794Z,7.03
2022-12-03T23:01:32.631Z,8.05
2022-12-03T23:04:02.099Z,8.27
2022-12-03T23:06:30.868Z,3.95
2022-12-03T23:09:00.140Z,6.07
2022-12-03T23:11:28.905Z,4.35
2022-12-03T23:13:59.346Z,9.15
2022-12-03T23:16:29.659Z,12.43
2022-12-03T23:19:01.593Z,6.10
2022-12-03T23:21:31.429Z,7.68
2022-12-03T23:24:00.581Z,5.90
2022-12-03T23:26:28.723Z,5.68
2022-12-03T23:28:56.699Z,7.13
2022-12-03T23:31:29.941Z,5.60
2022-12-03T23:33:59.452Z,7.00
2022-12-03T23:36:28.908Z,5.82
2022-12-03T23:38:57.604Z,6.85
2022-12-03T23:41:25.228Z,7.10
2022-12-03T23:43:53.112Z,6.57
2022-12-03T23:46:23.093Z,7.55
2022-12-03T23:48:51.428Z,5.78
2022-12-03T23:51:21.448Z,6.38
2022-12-03T23:53:49.118Z,6.13
2022-12-03T23:56:20.436Z,8.57
2022-12-03T23:58:48.269Z,6.20
